Record high temperature 44.9°C Record low temperature -0.3°C Record high gust 87.3 km/h Record high average 77.7 km/h Record daily rain 383.8 mm Record low windchill -5.8°C Record high barometer 1043.6 hPa Record low barometer 978.0 hPa
Daily high pressure 1018.3 mb Daily low pressure 1013.8 mb Daily low windchill 7.6°C Daily high heat index 12.1°C Daily high gust speed 13.7 kmh SSE Daily high average speed 8.3 kmh SSE
Estación de MeteoMurcia.com -------- Murcia-Puente Tocinos
Ultima grabación a: 04:50 Data: 20 February 2018, time of next update: 05:00
Tiempo actualClear/Night Temperatura actual9.3°C (48.7°F), Temperatura aparente 7.8°C
Temperatura máxima (desde medianoche)12.1°C at: 00:27 Temperatura mínima (desde medianoche)9.3°C at: 04:45
Velocidad media del viento (diez minutos)5.7 kmh (3.1 kts) Dirección del viento (diez minutos)S (180°)
Temperatura aparente 8.8°C ráfagas maxima (última hora)13.7 kmh (7.4 kts) at: 04:22
ráfagas maxima (desde medianoche)13.7 kmh (7.4 kts) at: 01:56 Maximo media de un minuto (desde medianoche)8.3 kmh (4.5 kts) at: 02:03
Lluvia (última hora)0.0 mm Lluvia (desde medianoche)0.0 mm (0.00 in.)at 02:00
Lluvia Este mes 11.0 mm (0.43 in.) Lluvia Hasta la fecha este año68.0 mm (2.68 in.)
Lluvia máxima por minuto (última hora)0.0 mm/min Lluvia maxima por hora (últimas 6 horas)0.0 mm/hora
Lluvia de ayer 0.0 mm Punto de rocío 7.1°C (Wet Bulb :8.2°C )
Humedad 86 %, Humidex 9.3°C Barómetro corregido a msl1013.8 mb
cambio de presión-0.1 mb (última hora) Tendencia (últimas 1 hora)ESTACIONARIO
cambio de presión (últimas 12 horas)-3.8 mb cambio de presión (últimas 6 horas)-3.8 mb
Current Temp. Interna 22.4°C
Current Hum. Interna 49%


Última imagen cámara web


Weather report/warning/Metars

Alicante / El Altet, Spain (LEAL) 38-17N 000-33W 31M
Feb 19, 2018 - 10:30 PM EST / 2018.02.20 0330 UTC
Wind: from the SW (230 degrees) at 7 MPH (6 KT):0
Visibility: greater than 7 mile(s):0
Temperature: 46 F (8 C)
Dew Point: 44 F (7 C)
Relative Humidity: 93%
Pressure (altimeter): 29.94 in. Hg (1014 hPa)
ob: LEAL 200330Z 23006KT CAVOK 08/07 Q1014 NOSIG
cycle: 3
Murcia / San Javier, Spain (LELC) 37-47N 000-48W 3M
Feb 19, 2018 - 04:00 PM EST / 2018.02.19 2100 UTC
Wind: from the W (280 degrees) at 3 MPH (3 KT):0
Visibility: greater than 7 mile(s):0
Temperature: 50 F (10 C)
Dew Point: 46 F (8 C)
Relative Humidity: 87%
Pressure (altimeter): 30.03 in. Hg (1017 hPa)
ob: LELC 192100Z 28003KT CAVOK 10/08 Q1017 NOSIG
cycle: 21
Murcia / Alcantarilla, Spain (LERI) 37-57N 001-14W 75M
Feb 19, 2018 - 01:00 PM EST / 2018.02.19 1800 UTC
Wind: from the SSE (160 degrees) at 7 MPH (6 KT):0
Visibility: greater than 7 mile(s):0
Sky conditions: mostly clear
Temperature: 57 F (14 C)
Dew Point: 48 F (9 C)
Relative Humidity: 71%
Pressure (altimeter): 30.00 in. Hg (1016 hPa)
ob: LERI 191800Z 16006KT 9999 FEW028 14/09 Q1016 NOSIG
cycle: 18
Gerona / Costa Brava, Spain (LEGE) 41-54N 002-46E 129M
Feb 19, 2018 - 10:30 PM EST / 2018.02.20 0330 UTC
Wind: Calm:0
Visibility: 2 mile(s):0
Sky conditions: partly cloudy
Weather: mist
Temperature: 44 F (7 C)
Dew Point: 44 F (7 C)
Relative Humidity: 100%
Pressure (altimeter): 29.88 in. Hg (1012 hPa)
ob: LEGE 200330Z 00000KT 4500 BR SCT086 07/07 Q1012
cycle: 3
Madri-Colmenar, Spain (LECV) 40-39N 003-44W
Feb 19, 2018 - 01:00 PM EST / 2018.02.19 1800 UTC
Wind: from the N (360 degrees) at 12 MPH (10 KT):0
Visibility: greater than 7 mile(s):0
Sky conditions: partly cloudy
Temperature: 48 F (9 C)
Dew Point: 35 F (2 C)
Relative Humidity: 61%
Pressure (altimeter): 30.06 in. Hg (1018 hPa)
ob: LECV 191800Z 36010KT 9999 FEW025 SCT065 09/02 Q1018
cycle: 18
Asturias / Aviles, Spain (LEAS) 43-33N 006-02W 130M
Feb 19, 2018 - 10:30 PM EST / 2018.02.20 0330 UTC
Wind: from the NW (320 degrees) at 5 MPH (4 KT) (direction variable):0
Visibility: 2 mile(s):0
Sky conditions: overcast
Weather: mist
Temperature: 50 F (10 C)
Dew Point: 48 F (9 C)
Relative Humidity: 93%
Pressure (altimeter): 30.24 in. Hg (1024 hPa)
ob: LEAS 200330Z AUTO 32004KT 290V360 4300 BR SCT011/// BKN019/// OVC060/// 10/09 Q1024
cycle: 3
Almeria / Aeropuerto, Spain (LEAM) 36-51N 002-23W 21M
Feb 19, 2018 - 10:30 PM EST / 2018.02.20 0330 UTC
Wind: from the NNW (330 degrees) at 9 MPH (8 KT):0
Visibility: greater than 7 mile(s):0
Temperature: 48 F (9 C)
Dew Point: 44 F (7 C)
Relative Humidity: 87%
Pressure (altimeter): 30.00 in. Hg (1016 hPa)
ob: LEAM 200330Z AUTO 33008KT 9999 NCD 09/07 Q1016
cycle: 3
Pamplona / Noain, Spain (LEPP) 42-46N 001-38W 453M
Feb 19, 2018 - 10:30 PM EST / 2018.02.20 0330 UTC
Wind: from the NW (310 degrees) at 8 MPH (7 KT):0
Visibility: 5 mile(s):0
Sky conditions: mostly cloudy
Weather: light rain
Temperature: 46 F (8 C)
Dew Point: 46 F (8 C)
Relative Humidity: 100%
Pressure (altimeter): 30.03 in. Hg (1017 hPa)
ob: LEPP 200330Z AUTO 31007KT 9000 -RA SCT021/// BKN028/// BKN039/// 08/08 Q1017
cycle: 3
Badajoz / Talavera La Real, Spain (LEBZ) 38-53N 006-49W 192M
Feb 19, 2018 - 03:00 PM EST / 2018.02.19 2000 UTC
Wind: from the N (010 degrees) at 2 MPH (2 KT):0
Visibility: greater than 7 mile(s):0
Temperature: 53 F (12 C)
Dew Point: 37 F (3 C)
Relative Humidity: 54%
Pressure (altimeter): 30.06 in. Hg (1018 hPa)
ob: LEBZ 192000Z 01002KT CAVOK 12/03 Q1018
cycle: 20
Albacete / Los Llanos, Spain (LEAB) 38-57N 001-51W 704M
Feb 19, 2018 - 10:00 PM EST / 2018.02.20 0300 UTC
Wind: Variable at 2 MPH (2 KT):0
Visibility: greater than 7 mile(s):0
Temperature: 35 F (2 C)
Dew Point: 32 F (0 C)
Relative Humidity: 86%
Pressure (altimeter): 30.00 in. Hg (1016 hPa)
ob: LEAB 200300Z VRB02KT CAVOK 02/00 Q1016 NOSIG
cycle: 3



La informacion se graba a intervalos de 2 minutos, pero hay info grabada cada minuto. Optimizado para 800*600 y Color verdadero. Use el boton de

Use the RECARGA en su navegador para recojer la ulima info.

Clicar aquí para regarga diaria de medias/extremas del mes














Created by "Weather Display" software version 10.37S at this start time/date 0:56:33 20/02/2018

La estación de MeteoMurcia.com, publica sus datos en los siguientes proyectos:

Meteoclimatic www.awekas.at

W3Counter
Web Analytics